sensor_id;sensor_type;location;lat;lon;timestamp;P1;durP1;ratioP1;P2;durP2;ratioP2
51866;SDS011;52862;52.504;13.480;2023-04-06T00:00:51;25.73;;;10.27;;
51866;SDS011;52862;52.504;13.480;2023-04-06T00:03:18;21.10;;;10.60;;
51866;SDS011;52862;52.504;13.480;2023-04-06T00:05:46;22.30;;;10.90;;
51866;SDS011;52862;52.504;13.480;2023-04-06T00:08:13;17.33;;;9.90;;
51866;SDS011;52862;52.504;13.480;2023-04-06T00:10:40;19.27;;;11.03;;
51866;SDS011;52862;52.504;13.480;2023-04-06T00:13:07;21.67;;;11.30;;
51866;SDS011;52862;52.504;13.480;2023-04-06T00:15:34;25.83;;;10.37;;
51866;SDS011;52862;52.504;13.480;2023-04-06T00:18:01;26.27;;;10.17;;
51866;SDS011;52862;52.504;13.480;2023-04-06T00:20:28;21.57;;;9.80;;
51866;SDS011;52862;52.504;13.480;2023-04-06T00:22:55;23.07;;;10.93;;
51866;SDS011;52862;52.504;13.480;2023-04-06T00:25:22;20.43;;;10.30;;
51866;SDS011;52862;52.504;13.480;2023-04-06T00:27:49;22.97;;;10.90;;
51866;SDS011;52862;52.504;13.480;2023-04-06T00:30:16;19.77;;;10.37;;
51866;SDS011;52862;52.504;13.480;2023-04-06T00:32:43;21.47;;;10.73;;
51866;SDS011;52862;52.504;13.480;2023-04-06T00:35:10;18.63;;;10.80;;
51866;SDS011;52862;52.504;13.480;2023-04-06T00:37:37;24.10;;;10.43;;
51866;SDS011;52862;52.504;13.480;2023-04-06T00:40:04;23.37;;;11.50;;
51866;SDS011;52862;52.504;13.480;2023-04-06T00:42:32;21.57;;;11.17;;
51866;SDS011;52862;52.504;13.480;2023-04-06T00:44:59;23.23;;;10.97;;
51866;SDS011;52862;52.504;13.480;2023-04-06T00:47:28;22.87;;;10.13;;
51866;SDS011;52862;52.504;13.480;2023-04-06T00:49:55;15.93;;;10.47;;
51866;SDS011;52862;52.504;13.480;2023-04-06T00:52:23;20.77;;;10.67;;
51866;SDS011;52862;52.504;13.480;2023-04-06T00:54:50;20.77;;;10.60;;
51866;SDS011;52862;52.504;13.480;2023-04-06T00:57:17;21.30;;;10.37;;
51866;SDS011;52862;52.504;13.480;2023-04-06T00:59:44;22.67;;;11.17;;
51866;SDS011;52862;52.504;13.480;2023-04-06T01:02:11;22.77;;;10.93;;
51866;SDS011;52862;52.504;13.480;2023-04-06T01:04:39;19.13;;;10.73;;
51866;SDS011;52862;52.504;13.480;2023-04-06T01:07:06;26.60;;;10.93;;
51866;SDS011;52862;52.504;13.480;2023-04-06T01:09:33;21.23;;;10.93;;
51866;SDS011;52862;52.504;13.480;2023-04-06T01:12:00;19.00;;;9.93;;
51866;SDS011;52862;52.504;13.480;2023-04-06T01:14:27;18.33;;;10.37;;
51866;SDS011;52862;52.504;13.480;2023-04-06T01:16:57;27.20;;;10.83;;
51866;SDS011;52862;52.504;13.480;2023-04-06T01:19:25;20.40;;;11.10;;
51866;SDS011;52862;52.504;13.480;2023-04-06T01:21:54;16.50;;;10.43;;
51866;SDS011;52862;52.504;13.480;2023-04-06T01:24:21;20.80;;;10.87;;
51866;SDS011;52862;52.504;13.480;2023-04-06T01:26:48;20.20;;;10.60;;
51866;SDS011;52862;52.504;13.480;2023-04-06T01:29:16;23.73;;;10.90;;
51866;SDS011;52862;52.504;13.480;2023-04-06T01:31:43;20.23;;;10.23;;
51866;SDS011;52862;52.504;13.480;2023-04-06T01:34:10;24.93;;;10.77;;
51866;SDS011;52862;52.504;13.480;2023-04-06T01:36:37;19.60;;;9.97;;
51866;SDS011;52862;52.504;13.480;2023-04-06T01:39:04;34.40;;;11.10;;
51866;SDS011;52862;52.504;13.480;2023-04-06T01:41:32;17.40;;;9.73;;
51866;SDS011;52862;52.504;13.480;2023-04-06T01:43:59;19.70;;;10.17;;
51866;SDS011;52862;52.504;13.480;2023-04-06T01:46:26;27.07;;;10.63;;
51866;SDS011;52862;52.504;13.480;2023-04-06T01:48:52;21.70;;;9.97;;
51866;SDS011;52862;52.504;13.480;2023-04-06T01:51:19;18.50;;;9.70;;
51866;SDS011;52862;52.504;13.480;2023-04-06T01:53:46;18.63;;;10.00;;
51866;SDS011;52862;52.504;13.480;2023-04-06T01:56:13;22.53;;;10.40;;
51866;SDS011;52862;52.504;13.480;2023-04-06T01:58:41;21.23;;;9.93;;
51866;SDS011;52862;52.504;13.480;2023-04-06T02:01:08;24.60;;;10.90;;
51866;SDS011;52862;52.504;13.480;2023-04-06T02:03:35;19.37;;;10.17;;
51866;SDS011;52862;52.504;13.480;2023-04-06T02:06:02;24.37;;;10.60;;
51866;SDS011;52862;52.504;13.480;2023-04-06T02:08:29;16.73;;;10.30;;
51866;SDS011;52862;52.504;13.480;2023-04-06T02:10:56;31.13;;;12.03;;
51866;SDS011;52862;52.504;13.480;2023-04-06T02:13:22;23.90;;;11.07;;
51866;SDS011;52862;52.504;13.480;2023-04-06T02:15:50;23.27;;;10.67;;
51866;SDS011;52862;52.504;13.480;2023-04-06T02:18:17;25.53;;;10.97;;
51866;SDS011;52862;52.504;13.480;2023-04-06T02:20:44;21.83;;;10.33;;
51866;SDS011;52862;52.504;13.480;2023-04-06T02:23:11;17.23;;;10.63;;
51866;SDS011;52862;52.504;13.480;2023-04-06T02:25:38;18.97;;;9.73;;
51866;SDS011;52862;52.504;13.480;2023-04-06T02:28:05;19.87;;;9.77;;
51866;SDS011;52862;52.504;13.480;2023-04-06T02:30:32;25.93;;;10.87;;
51866;SDS011;52862;52.504;13.480;2023-04-06T02:33:00;16.93;;;10.47;;
51866;SDS011;52862;52.504;13.480;2023-04-06T02:35:27;21.07;;;10.63;;
51866;SDS011;52862;52.504;13.480;2023-04-06T02:37:55;31.40;;;10.73;;
51866;SDS011;52862;52.504;13.480;2023-04-06T02:40:21;18.03;;;9.57;;
51866;SDS011;52862;52.504;13.480;2023-04-06T02:42:48;24.47;;;10.63;;
51866;SDS011;52862;52.504;13.480;2023-04-06T02:45:15;21.67;;;10.60;;
51866;SDS011;52862;52.504;13.480;2023-04-06T02:47:42;26.60;;;10.97;;
51866;SDS011;52862;52.504;13.480;2023-04-06T02:50:10;26.80;;;11.20;;
51866;SDS011;52862;52.504;13.480;2023-04-06T02:52:36;21.80;;;10.70;;
51866;SDS011;52862;52.504;13.480;2023-04-06T02:55:04;24.33;;;11.17;;
51866;SDS011;52862;52.504;13.480;2023-04-06T02:57:33;28.10;;;11.77;;
51866;SDS011;52862;52.504;13.480;2023-04-06T03:00:00;26.63;;;11.13;;
51866;SDS011;52862;52.504;13.480;2023-04-06T03:02:26;21.87;;;11.20;;
51866;SDS011;52862;52.504;13.480;2023-04-06T03:04:53;25.20;;;10.77;;
51866;SDS011;52862;52.504;13.480;2023-04-06T03:07:21;24.40;;;11.23;;
51866;SDS011;52862;52.504;13.480;2023-04-06T03:09:48;20.57;;;10.03;;
51866;SDS011;52862;52.504;13.480;2023-04-06T03:12:15;20.17;;;10.60;;
51866;SDS011;52862;52.504;13.480;2023-04-06T03:14:42;18.27;;;9.87;;
51866;SDS011;52862;52.504;13.480;2023-04-06T03:17:08;26.17;;;11.27;;
51866;SDS011;52862;52.504;13.480;2023-04-06T03:19:41;17.73;;;10.57;;
51866;SDS011;52862;52.504;13.480;2023-04-06T03:22:08;20.33;;;10.03;;
51866;SDS011;52862;52.504;13.480;2023-04-06T03:24:36;21.10;;;9.97;;
51866;SDS011;52862;52.504;13.480;2023-04-06T03:27:03;23.73;;;10.80;;
51866;SDS011;52862;52.504;13.480;2023-04-06T03:29:30;18.93;;;10.30;;
51866;SDS011;52862;52.504;13.480;2023-04-06T03:31:56;20.83;;;10.13;;
51866;SDS011;52862;52.504;13.480;2023-04-06T03:34:24;27.07;;;10.40;;
51866;SDS011;52862;52.504;13.480;2023-04-06T03:36:50;23.43;;;10.47;;
51866;SDS011;52862;52.504;13.480;2023-04-06T03:39:34;19.00;;;10.63;;
51866;SDS011;52862;52.504;13.480;2023-04-06T03:42:02;24.50;;;11.20;;
51866;SDS011;52862;52.504;13.480;2023-04-06T03:44:29;25.27;;;11.43;;
51866;SDS011;52862;52.504;13.480;2023-04-06T03:46:56;23.23;;;10.90;;
51866;SDS011;52862;52.504;13.480;2023-04-06T03:49:23;29.03;;;10.70;;
51866;SDS011;52862;52.504;13.480;2023-04-06T03:51:50;23.27;;;10.17;;
51866;SDS011;52862;52.504;13.480;2023-04-06T03:54:17;19.33;;;10.13;;
51866;SDS011;52862;52.504;13.480;2023-04-06T03:56:44;21.33;;;10.20;;
51866;SDS011;52862;52.504;13.480;2023-04-06T03:59:11;24.77;;;9.97;;
51866;SDS011;52862;52.504;13.480;2023-04-06T04:01:38;23.90;;;8.93;;
51866;SDS011;52862;52.504;13.480;2023-04-06T04:04:05;19.33;;;9.40;;
51866;SDS011;52862;52.504;13.480;2023-04-06T04:06:32;21.80;;;9.30;;
51866;SDS011;52862;52.504;13.480;2023-04-06T04:08:59;18.63;;;8.70;;
51866;SDS011;52862;52.504;13.480;2023-04-06T04:11:26;21.47;;;10.00;;
51866;SDS011;52862;52.504;13.480;2023-04-06T04:13:54;20.47;;;10.13;;
51866;SDS011;52862;52.504;13.480;2023-04-06T04:16:20;20.60;;;9.47;;
51866;SDS011;52862;52.504;13.480;2023-04-06T04:18:47;21.67;;;9.73;;
51866;SDS011;52862;52.504;13.480;2023-04-06T04:21:14;22.90;;;8.83;;
51866;SDS011;52862;52.504;13.480;2023-04-06T04:23:41;19.43;;;8.23;;
51866;SDS011;52862;52.504;13.480;2023-04-06T04:26:08;19.87;;;8.73;;
51866;SDS011;52862;52.504;13.480;2023-04-06T04:28:35;23.90;;;8.50;;
51866;SDS011;52862;52.504;13.480;2023-04-06T04:31:03;23.83;;;9.20;;
51866;SDS011;52862;52.504;13.480;2023-04-06T04:33:30;26.33;;;9.90;;
51866;SDS011;52862;52.504;13.480;2023-04-06T04:35:57;27.53;;;9.37;;
51866;SDS011;52862;52.504;13.480;2023-04-06T04:38:23;21.73;;;9.20;;
51866;SDS011;52862;52.504;13.480;2023-04-06T04:40:50;36.63;;;9.23;;
51866;SDS011;52862;52.504;13.480;2023-04-06T04:43:17;27.27;;;9.40;;
51866;SDS011;52862;52.504;13.480;2023-04-06T04:45:44;33.33;;;9.57;;
51866;SDS011;52862;52.504;13.480;2023-04-06T04:48:12;20.23;;;9.37;;
51866;SDS011;52862;52.504;13.480;2023-04-06T04:50:39;24.73;;;9.10;;
51866;SDS011;52862;52.504;13.480;2023-04-06T04:53:06;29.80;;;9.40;;
51866;SDS011;52862;52.504;13.480;2023-04-06T04:55:33;21.30;;;9.03;;
51866;SDS011;52862;52.504;13.480;2023-04-06T04:58:00;19.33;;;9.07;;
51866;SDS011;52862;52.504;13.480;2023-04-06T05:00:34;27.87;;;9.87;;
51866;SDS011;52862;52.504;13.480;2023-04-06T05:03:01;32.07;;;10.47;;
51866;SDS011;52862;52.504;13.480;2023-04-06T05:05:31;22.27;;;9.23;;
51866;SDS011;52862;52.504;13.480;2023-04-06T05:07:57;19.47;;;9.17;;
51866;SDS011;52862;52.504;13.480;2023-04-06T05:10:24;23.30;;;8.93;;
51866;SDS011;52862;52.504;13.480;2023-04-06T05:12:51;23.23;;;10.07;;
51866;SDS011;52862;52.504;13.480;2023-04-06T05:15:18;23.83;;;9.73;;
51866;SDS011;52862;52.504;13.480;2023-04-06T05:17:45;17.77;;;8.70;;
51866;SDS011;52862;52.504;13.480;2023-04-06T05:20:12;19.17;;;8.50;;
51866;SDS011;52862;52.504;13.480;2023-04-06T05:22:40;25.67;;;9.07;;
51866;SDS011;52862;52.504;13.480;2023-04-06T05:25:07;24.70;;;9.40;;
51866;SDS011;52862;52.504;13.480;2023-04-06T05:27:34;28.83;;;9.70;;
51866;SDS011;52862;52.504;13.480;2023-04-06T05:30:01;23.80;;;8.97;;
51866;SDS011;52862;52.504;13.480;2023-04-06T05:32:29;21.87;;;9.90;;
51866;SDS011;52862;52.504;13.480;2023-04-06T05:34:56;17.90;;;8.73;;
51866;SDS011;52862;52.504;13.480;2023-04-06T05:37:23;22.60;;;8.70;;
51866;SDS011;52862;52.504;13.480;2023-04-06T05:39:50;21.87;;;9.60;;
51866;SDS011;52862;52.504;13.480;2023-04-06T05:42:17;24.10;;;9.23;;
51866;SDS011;52862;52.504;13.480;2023-04-06T05:44:44;21.47;;;9.70;;
51866;SDS011;52862;52.504;13.480;2023-04-06T05:47:11;23.33;;;9.03;;
51866;SDS011;52862;52.504;13.480;2023-04-06T05:49:38;23.23;;;11.10;;
51866;SDS011;52862;52.504;13.480;2023-04-06T05:52:04;23.63;;;9.50;;
51866;SDS011;52862;52.504;13.480;2023-04-06T05:54:32;20.73;;;8.80;;
51866;SDS011;52862;52.504;13.480;2023-04-06T05:56:59;20.33;;;8.73;;
51866;SDS011;52862;52.504;13.480;2023-04-06T05:59:28;14.57;;;8.47;;
51866;SDS011;52862;52.504;13.480;2023-04-06T06:01:55;24.27;;;8.93;;
51866;SDS011;52862;52.504;13.480;2023-04-06T06:04:22;16.40;;;7.77;;
51866;SDS011;52862;52.504;13.480;2023-04-06T06:06:49;22.37;;;9.47;;
51866;SDS011;52862;52.504;13.480;2023-04-06T06:09:16;25.20;;;8.97;;
51866;SDS011;52862;52.504;13.480;2023-04-06T06:11:43;21.07;;;8.77;;
51866;SDS011;52862;52.504;13.480;2023-04-06T06:14:11;21.07;;;8.00;;
51866;SDS011;52862;52.504;13.480;2023-04-06T06:16:38;27.53;;;8.33;;
51866;SDS011;52862;52.504;13.480;2023-04-06T06:19:05;19.37;;;8.17;;
51866;SDS011;52862;52.504;13.480;2023-04-06T06:21:32;23.10;;;8.50;;
51866;SDS011;52862;52.504;13.480;2023-04-06T06:23:59;19.87;;;8.83;;
51866;SDS011;52862;52.504;13.480;2023-04-06T06:26:26;18.90;;;7.93;;
51866;SDS011;52862;52.504;13.480;2023-04-06T06:28:52;17.53;;;7.37;;
51866;SDS011;52862;52.504;13.480;2023-04-06T06:31:21;25.43;;;8.93;;
51866;SDS011;52862;52.504;13.480;2023-04-06T06:33:48;17.97;;;7.50;;
51866;SDS011;52862;52.504;13.480;2023-04-06T06:36:16;27.73;;;8.27;;
51866;SDS011;52862;52.504;13.480;2023-04-06T06:38:43;28.07;;;8.67;;
51866;SDS011;52862;52.504;13.480;2023-04-06T06:41:10;20.53;;;8.50;;
51866;SDS011;52862;52.504;13.480;2023-04-06T06:43:37;21.00;;;8.20;;
51866;SDS011;52862;52.504;13.480;2023-04-06T06:46:04;24.23;;;8.50;;
51866;SDS011;52862;52.504;13.480;2023-04-06T06:48:32;18.57;;;8.23;;
51866;SDS011;52862;52.504;13.480;2023-04-06T06:50:59;36.87;;;9.10;;
51866;SDS011;52862;52.504;13.480;2023-04-06T06:53:26;20.33;;;7.40;;
51866;SDS011;52862;52.504;13.480;2023-04-06T06:55:53;16.73;;;7.67;;
51866;SDS011;52862;52.504;13.480;2023-04-06T06:58:21;21.70;;;7.67;;
51866;SDS011;52862;52.504;13.480;2023-04-06T07:00:48;20.20;;;7.23;;
51866;SDS011;52862;52.504;13.480;2023-04-06T07:03:15;19.67;;;7.83;;
51866;SDS011;52862;52.504;13.480;2023-04-06T07:05:45;15.93;;;6.80;;
51866;SDS011;52862;52.504;13.480;2023-04-06T07:08:18;17.13;;;7.43;;
51866;SDS011;52862;52.504;13.480;2023-04-06T07:10:45;17.37;;;7.23;;
51866;SDS011;52862;52.504;13.480;2023-04-06T07:13:12;26.23;;;7.70;;
51866;SDS011;52862;52.504;13.480;2023-04-06T07:15:43;19.17;;;7.37;;
51866;SDS011;52862;52.504;13.480;2023-04-06T07:18:10;17.60;;;6.23;;
51866;SDS011;52862;52.504;13.480;2023-04-06T07:20:38;16.23;;;6.30;;
51866;SDS011;52862;52.504;13.480;2023-04-06T07:23:06;13.70;;;6.17;;
51866;SDS011;52862;52.504;13.480;2023-04-06T07:25:33;22.53;;;6.60;;
51866;SDS011;52862;52.504;13.480;2023-04-06T07:28:00;14.87;;;6.07;;
51866;SDS011;52862;52.504;13.480;2023-04-06T07:30:27;20.10;;;6.30;;
51866;SDS011;52862;52.504;13.480;2023-04-06T07:32:57;12.33;;;5.70;;
51866;SDS011;52862;52.504;13.480;2023-04-06T07:35:26;22.80;;;7.67;;
51866;SDS011;52862;52.504;13.480;2023-04-06T07:37:53;21.20;;;9.53;;
51866;SDS011;52862;52.504;13.480;2023-04-06T07:40:22;22.43;;;9.77;;
51866;SDS011;52862;52.504;13.480;2023-04-06T07:42:49;39.10;;;13.23;;
51866;SDS011;52862;52.504;13.480;2023-04-06T07:45:16;37.30;;;14.30;;
51866;SDS011;52862;52.504;13.480;2023-04-06T07:47:43;44.23;;;15.77;;
51866;SDS011;52862;52.504;13.480;2023-04-06T07:50:10;47.43;;;16.53;;
51866;SDS011;52862;52.504;13.480;2023-04-06T07:52:37;31.23;;;11.87;;
51866;SDS011;52862;52.504;13.480;2023-04-06T07:55:05;23.83;;;9.53;;
51866;SDS011;52862;52.504;13.480;2023-04-06T07:57:32;23.00;;;7.90;;
51866;SDS011;52862;52.504;13.480;2023-04-06T07:59:59;14.73;;;7.23;;
51866;SDS011;52862;52.504;13.480;2023-04-06T08:02:26;20.23;;;7.40;;
51866;SDS011;52862;52.504;13.480;2023-04-06T08:04:53;14.67;;;6.40;;
51866;SDS011;52862;52.504;13.480;2023-04-06T08:07:20;13.77;;;6.30;;
51866;SDS011;52862;52.504;13.480;2023-04-06T08:09:47;13.30;;;5.60;;
51866;SDS011;52862;52.504;13.480;2023-04-06T08:12:15;16.60;;;5.83;;
51866;SDS011;52862;52.504;13.480;2023-04-06T08:14:44;10.73;;;4.80;;
51866;SDS011;52862;52.504;13.480;2023-04-06T08:17:11;12.73;;;4.90;;
51866;SDS011;52862;52.504;13.480;2023-04-06T08:19:38;10.90;;;4.13;;
51866;SDS011;52862;52.504;13.480;2023-04-06T08:22:06;16.93;;;4.97;;
51866;SDS011;52862;52.504;13.480;2023-04-06T08:24:32;13.07;;;4.37;;
51866;SDS011;52862;52.504;13.480;2023-04-06T08:26:59;11.70;;;4.70;;
51866;SDS011;52862;52.504;13.480;2023-04-06T08:29:27;10.50;;;3.77;;
51866;SDS011;52862;52.504;13.480;2023-04-06T08:31:54;14.53;;;4.47;;
51866;SDS011;52862;52.504;13.480;2023-04-06T08:34:21;9.20;;;4.00;;
51866;SDS011;52862;52.504;13.480;2023-04-06T08:36:49;12.10;;;4.20;;
51866;SDS011;52862;52.504;13.480;2023-04-06T08:39:16;8.30;;;3.57;;
51866;SDS011;52862;52.504;13.480;2023-04-06T08:41:49;12.77;;;4.53;;
51866;SDS011;52862;52.504;13.480;2023-04-06T08:44:17;8.67;;;3.60;;
51866;SDS011;52862;52.504;13.480;2023-04-06T08:46:44;8.90;;;3.57;;
51866;SDS011;52862;52.504;13.480;2023-04-06T08:49:12;9.47;;;3.73;;
51866;SDS011;52862;52.504;13.480;2023-04-06T08:51:40;8.60;;;3.17;;
51866;SDS011;52862;52.504;13.480;2023-04-06T08:54:09;7.87;;;2.97;;
51866;SDS011;52862;52.504;13.480;2023-04-06T08:56:37;9.17;;;3.60;;
51866;SDS011;52862;52.504;13.480;2023-04-06T08:59:04;8.57;;;2.80;;
51866;SDS011;52862;52.504;13.480;2023-04-06T09:01:33;4.90;;;2.77;;
51866;SDS011;52862;52.504;13.480;2023-04-06T09:04:04;11.30;;;3.40;;
51866;SDS011;52862;52.504;13.480;2023-04-06T09:06:36;9.93;;;3.10;;
51866;SDS011;52862;52.504;13.480;2023-04-06T09:09:03;6.37;;;2.93;;
51866;SDS011;52862;52.504;13.480;2023-04-06T09:11:40;8.30;;;3.10;;
51866;SDS011;52862;52.504;13.480;2023-04-06T09:14:09;10.90;;;3.57;;
51866;SDS011;52862;52.504;13.480;2023-04-06T09:16:40;11.90;;;3.47;;
51866;SDS011;52862;52.504;13.480;2023-04-06T09:19:08;9.50;;;3.30;;
51866;SDS011;52862;52.504;13.480;2023-04-06T09:21:36;8.07;;;3.20;;
51866;SDS011;52862;52.504;13.480;2023-04-06T09:24:06;11.63;;;3.37;;
51866;SDS011;52862;52.504;13.480;2023-04-06T09:26:43;8.90;;;3.40;;
51866;SDS011;52862;52.504;13.480;2023-04-06T09:29:21;8.70;;;3.20;;
51866;SDS011;52862;52.504;13.480;2023-04-06T09:31:49;17.03;;;3.90;;
51866;SDS011;52862;52.504;13.480;2023-04-06T09:34:20;7.00;;;2.90;;
51866;SDS011;52862;52.504;13.480;2023-04-06T09:36:49;13.27;;;3.67;;
51866;SDS011;52862;52.504;13.480;2023-04-06T09:39:19;5.77;;;2.60;;
51866;SDS011;52862;52.504;13.480;2023-04-06T09:41:49;7.00;;;2.60;;
51866;SDS011;52862;52.504;13.480;2023-04-06T09:44:17;5.93;;;2.80;;
51866;SDS011;52862;52.504;13.480;2023-04-06T09:46:45;7.80;;;3.10;;
51866;SDS011;52862;52.504;13.480;2023-04-06T09:49:26;5.17;;;2.40;;
51866;SDS011;52862;52.504;13.480;2023-04-06T09:51:55;10.07;;;3.07;;
51866;SDS011;52862;52.504;13.480;2023-04-06T09:54:26;6.50;;;2.73;;
51866;SDS011;52862;52.504;13.480;2023-04-06T09:56:56;5.87;;;2.97;;
51866;SDS011;52862;52.504;13.480;2023-04-06T09:59:30;7.53;;;3.17;;
51866;SDS011;52862;52.504;13.480;2023-04-06T10:02:04;9.30;;;3.53;;
51866;SDS011;52862;52.504;13.480;2023-04-06T10:04:33;9.07;;;3.50;;
51866;SDS011;52862;52.504;13.480;2023-04-06T10:07:07;11.77;;;4.03;;
51866;SDS011;52862;52.504;13.480;2023-04-06T10:09:37;6.40;;;3.13;;
51866;SDS011;52862;52.504;13.480;2023-04-06T10:12:05;6.07;;;2.67;;
51866;SDS011;52862;52.504;13.480;2023-04-06T10:14:32;16.67;;;3.80;;
51866;SDS011;52862;52.504;13.480;2023-04-06T10:17:03;8.17;;;3.80;;
51866;SDS011;52862;52.504;13.480;2023-04-06T10:19:44;7.00;;;2.70;;
51866;SDS011;52862;52.504;13.480;2023-04-06T10:22:18;5.53;;;2.73;;
51866;SDS011;52862;52.504;13.480;2023-04-06T10:24:52;5.20;;;2.27;;
51866;SDS011;52862;52.504;13.480;2023-04-06T10:27:27;3.77;;;2.40;;
51866;SDS011;52862;52.504;13.480;2023-04-06T10:30:09;3.93;;;2.07;;
51866;SDS011;52862;52.504;13.480;2023-04-06T10:32:37;6.23;;;2.20;;
51866;SDS011;52862;52.504;13.480;2023-04-06T10:35:08;5.53;;;2.53;;
51866;SDS011;52862;52.504;13.480;2023-04-06T10:37:49;4.67;;;2.00;;
51866;SDS011;52862;52.504;13.480;2023-04-06T10:40:20;12.47;;;2.37;;
51866;SDS011;52862;52.504;13.480;2023-04-06T10:42:49;7.50;;;2.20;;
51866;SDS011;52862;52.504;13.480;2023-04-06T10:45:20;8.13;;;2.10;;
51866;SDS011;52862;52.504;13.480;2023-04-06T10:47:49;5.20;;;2.47;;
51866;SDS011;52862;52.504;13.480;2023-04-06T10:50:16;4.13;;;2.47;;
51866;SDS011;52862;52.504;13.480;2023-04-06T10:52:43;5.40;;;2.13;;
51866;SDS011;52862;52.504;13.480;2023-04-06T10:55:12;6.37;;;2.37;;
51866;SDS011;52862;52.504;13.480;2023-04-06T10:57:40;9.47;;;2.50;;
51866;SDS011;52862;52.504;13.480;2023-04-06T11:00:07;4.73;;;2.57;;
51866;SDS011;52862;52.504;13.480;2023-04-06T11:02:37;6.27;;;2.50;;
51866;SDS011;52862;52.504;13.480;2023-04-06T11:05:05;4.97;;;2.47;;
51866;SDS011;52862;52.504;13.480;2023-04-06T11:07:32;12.77;;;2.70;;
51866;SDS011;52862;52.504;13.480;2023-04-06T11:09:59;3.53;;;2.37;;
51866;SDS011;52862;52.504;13.480;2023-04-06T11:12:43;6.37;;;2.47;;
51866;SDS011;52862;52.504;13.480;2023-04-06T11:15:10;5.77;;;2.60;;
51866;SDS011;52862;52.504;13.480;2023-04-06T11:17:37;6.37;;;2.57;;
51866;SDS011;52862;52.504;13.480;2023-04-06T11:20:05;18.77;;;2.40;;
51866;SDS011;52862;52.504;13.480;2023-04-06T11:22:47;5.63;;;2.47;;
51866;SDS011;52862;52.504;13.480;2023-04-06T11:25:14;6.53;;;2.67;;
51866;SDS011;52862;52.504;13.480;2023-04-06T11:27:43;6.23;;;2.27;;
51866;SDS011;52862;52.504;13.480;2023-04-06T11:30:11;5.30;;;2.33;;
51866;SDS011;52862;52.504;13.480;2023-04-06T11:32:39;4.83;;;2.50;;
51866;SDS011;52862;52.504;13.480;2023-04-06T11:35:07;4.27;;;2.07;;
51866;SDS011;52862;52.504;13.480;2023-04-06T11:37:37;6.27;;;2.43;;
51866;SDS011;52862;52.504;13.480;2023-04-06T11:40:07;5.77;;;2.37;;
51866;SDS011;52862;52.504;13.480;2023-04-06T11:42:35;9.83;;;2.30;;
51866;SDS011;52862;52.504;13.480;2023-04-06T11:45:03;5.43;;;2.73;;
51866;SDS011;52862;52.504;13.480;2023-04-06T11:47:33;7.37;;;2.67;;
51866;SDS011;52862;52.504;13.480;2023-04-06T11:50:07;7.63;;;2.87;;
51866;SDS011;52862;52.504;13.480;2023-04-06T11:52:35;9.37;;;2.77;;
51866;SDS011;52862;52.504;13.480;2023-04-06T11:55:10;4.10;;;2.30;;
51866;SDS011;52862;52.504;13.480;2023-04-06T11:57:39;9.83;;;2.60;;
51866;SDS011;52862;52.504;13.480;2023-04-06T12:00:07;6.50;;;3.00;;
51866;SDS011;52862;52.504;13.480;2023-04-06T12:02:35;15.70;;;4.37;;
51866;SDS011;52862;52.504;13.480;2023-04-06T12:05:03;5.07;;;2.77;;
51866;SDS011;52862;52.504;13.480;2023-04-06T12:07:31;12.53;;;2.90;;
51866;SDS011;52862;52.504;13.480;2023-04-06T12:09:58;11.97;;;2.50;;
51866;SDS011;52862;52.504;13.480;2023-04-06T12:12:25;7.70;;;2.73;;
51866;SDS011;52862;52.504;13.480;2023-04-06T12:14:52;5.03;;;2.40;;
51866;SDS011;52862;52.504;13.480;2023-04-06T12:17:19;9.37;;;2.27;;
51866;SDS011;52862;52.504;13.480;2023-04-06T12:19:46;5.80;;;2.53;;
51866;SDS011;52862;52.504;13.480;2023-04-06T12:22:13;3.93;;;2.10;;
51866;SDS011;52862;52.504;13.480;2023-04-06T12:24:46;5.50;;;2.53;;
51866;SDS011;52862;52.504;13.480;2023-04-06T12:27:13;6.10;;;2.20;;
51866;SDS011;52862;52.504;13.480;2023-04-06T12:29:40;6.27;;;2.30;;
51866;SDS011;52862;52.504;13.480;2023-04-06T12:32:07;14.00;;;2.87;;
51866;SDS011;52862;52.504;13.480;2023-04-06T12:34:34;5.73;;;2.67;;
51866;SDS011;52862;52.504;13.480;2023-04-06T12:37:01;7.50;;;2.73;;
51866;SDS011;52862;52.504;13.480;2023-04-06T12:39:28;6.23;;;2.70;;
51866;SDS011;52862;52.504;13.480;2023-04-06T12:41:55;7.30;;;2.60;;
51866;SDS011;52862;52.504;13.480;2023-04-06T12:44:22;10.07;;;2.50;;
51866;SDS011;52862;52.504;13.480;2023-04-06T12:46:52;6.00;;;2.27;;
51866;SDS011;52862;52.504;13.480;2023-04-06T12:49:19;4.77;;;2.43;;
51866;SDS011;52862;52.504;13.480;2023-04-06T12:51:46;5.43;;;2.20;;
51866;SDS011;52862;52.504;13.480;2023-04-06T12:54:13;5.70;;;2.37;;
51866;SDS011;52862;52.504;13.480;2023-04-06T12:56:40;5.20;;;2.37;;
51866;SDS011;52862;52.504;13.480;2023-04-06T12:59:07;8.30;;;2.13;;
51866;SDS011;52862;52.504;13.480;2023-04-06T13:01:33;8.13;;;2.80;;
51866;SDS011;52862;52.504;13.480;2023-04-06T13:04:00;8.00;;;2.60;;
51866;SDS011;52862;52.504;13.480;2023-04-06T13:06:28;3.53;;;2.10;;
51866;SDS011;52862;52.504;13.480;2023-04-06T13:08:56;4.10;;;2.20;;
51866;SDS011;52862;52.504;13.480;2023-04-06T13:11:23;8.23;;;2.60;;
51866;SDS011;52862;52.504;13.480;2023-04-06T13:13:53;14.20;;;2.50;;
51866;SDS011;52862;52.504;13.480;2023-04-06T13:16:20;6.57;;;2.53;;
51866;SDS011;52862;52.504;13.480;2023-04-06T13:18:47;5.23;;;2.30;;
51866;SDS011;52862;52.504;13.480;2023-04-06T13:21:14;5.17;;;2.40;;
51866;SDS011;52862;52.504;13.480;2023-04-06T13:23:42;8.57;;;2.63;;
51866;SDS011;52862;52.504;13.480;2023-04-06T13:26:09;6.40;;;2.23;;
51866;SDS011;52862;52.504;13.480;2023-04-06T13:28:36;6.47;;;2.57;;
51866;SDS011;52862;52.504;13.480;2023-04-06T13:31:04;8.83;;;2.30;;
51866;SDS011;52862;52.504;13.480;2023-04-06T13:33:31;4.70;;;2.30;;
51866;SDS011;52862;52.504;13.480;2023-04-06T13:35:58;18.07;;;3.83;;
51866;SDS011;52862;52.504;13.480;2023-04-06T13:38:25;15.00;;;3.53;;
51866;SDS011;52862;52.504;13.480;2023-04-06T13:40:55;13.00;;;3.10;;
51866;SDS011;52862;52.504;13.480;2023-04-06T13:43:23;5.30;;;2.67;;
51866;SDS011;52862;52.504;13.480;2023-04-06T13:45:52;5.43;;;2.43;;
51866;SDS011;52862;52.504;13.480;2023-04-06T13:48:21;7.20;;;2.30;;
51866;SDS011;52862;52.504;13.480;2023-04-06T13:50:48;6.33;;;2.23;;
51866;SDS011;52862;52.504;13.480;2023-04-06T13:53:15;8.07;;;2.63;;
51866;SDS011;52862;52.504;13.480;2023-04-06T13:55:42;8.23;;;2.70;;
51866;SDS011;52862;52.504;13.480;2023-04-06T13:58:09;4.33;;;2.40;;
51866;SDS011;52862;52.504;13.480;2023-04-06T14:00:36;8.60;;;2.67;;
51866;SDS011;52862;52.504;13.480;2023-04-06T14:03:03;3.63;;;2.40;;
51866;SDS011;52862;52.504;13.480;2023-04-06T14:05:31;8.80;;;2.40;;
51866;SDS011;52862;52.504;13.480;2023-04-06T14:07:57;4.13;;;2.27;;
51866;SDS011;52862;52.504;13.480;2023-04-06T14:10:27;4.67;;;2.37;;
51866;SDS011;52862;52.504;13.480;2023-04-06T14:12:54;5.03;;;2.83;;
51866;SDS011;52862;52.504;13.480;2023-04-06T14:15:21;5.78;;;2.17;;
51866;SDS011;52862;52.504;13.480;2023-04-06T14:17:48;8.10;;;2.42;;
51866;SDS011;52862;52.504;13.480;2023-04-06T14:20:16;4.90;;;2.33;;
51866;SDS011;52862;52.504;13.480;2023-04-06T14:22:44;4.63;;;2.28;;
51866;SDS011;52862;52.504;13.480;2023-04-06T14:25:11;5.10;;;2.43;;
51866;SDS011;52862;52.504;13.480;2023-04-06T14:27:38;9.83;;;2.63;;